sensor_id;sensor_type;location;lat;lon;timestamp;pressure;altitude;pressure_sealevel;temperature;humidity
57644;BME280;43474;46.510;6.686;2023-04-25T00:01:17;96029.09;;;8.39;100.00
57644;BME280;43474;46.510;6.686;2023-04-25T00:03:43;96034.81;;;8.48;100.00
57644;BME280;43474;46.510;6.686;2023-04-25T00:06:08;96020.00;;;8.47;100.00
57644;BME280;43474;46.510;6.686;2023-04-25T00:08:34;96018.97;;;8.48;100.00
57644;BME280;43474;46.510;6.686;2023-04-25T00:11:00;96029.03;;;8.63;100.00
57644;BME280;43474;46.510;6.686;2023-04-25T00:13:26;96019.63;;;8.55;100.00
57644;BME280;43474;46.510;6.686;2023-04-25T00:15:52;96028.50;;;8.61;100.00
57644;BME280;43474;46.510;6.686;2023-04-25T00:18:22;96018.72;;;8.61;100.00
57644;BME280;43474;46.510;6.686;2023-04-25T00:20:48;96010.00;;;8.61;100.00
57644;BME280;43474;46.510;6.686;2023-04-25T00:23:14;96013.75;;;8.65;100.00
57644;BME280;43474;46.510;6.686;2023-04-25T00:25:44;96002.53;;;8.58;100.00
57644;BME280;43474;46.510;6.686;2023-04-25T00:28:11;96027.59;;;8.84;100.00
57644;BME280;43474;46.510;6.686;2023-04-25T00:30:37;95998.41;;;8.62;100.00
57644;BME280;43474;46.510;6.686;2023-04-25T00:33:03;96009.75;;;8.62;100.00
57644;BME280;43474;46.510;6.686;2023-04-25T00:35:28;95985.00;;;8.51;100.00
57644;BME280;43474;46.510;6.686;2023-04-25T00:37:54;96000.78;;;8.63;100.00
57644;BME280;43474;46.510;6.686;2023-04-25T00:40:20;96017.09;;;8.72;100.00
57644;BME280;43474;46.510;6.686;2023-04-25T00:42:47;96008.34;;;8.71;100.00
57644;BME280;43474;46.510;6.686;2023-04-25T00:45:13;96007.34;;;8.61;100.00
57644;BME280;43474;46.510;6.686;2023-04-25T00:47:41;95994.75;;;8.39;100.00
57644;BME280;43474;46.510;6.686;2023-04-25T00:50:07;96007.25;;;8.44;100.00
57644;BME280;43474;46.510;6.686;2023-04-25T00:52:34;96014.25;;;8.50;100.00
57644;BME280;43474;46.510;6.686;2023-04-25T00:55:00;96011.19;;;8.41;100.00
57644;BME280;43474;46.510;6.686;2023-04-25T00:57:26;96018.84;;;8.54;100.00
57644;BME280;43474;46.510;6.686;2023-04-25T00:59:52;96017.34;;;8.59;100.00
57644;BME280;43474;46.510;6.686;2023-04-25T01:02:19;96013.25;;;8.51;100.00
57644;BME280;43474;46.510;6.686;2023-04-25T01:04:46;96010.69;;;8.44;100.00
57644;BME280;43474;46.510;6.686;2023-04-25T01:07:12;96007.25;;;8.44;100.00
57644;BME280;43474;46.510;6.686;2023-04-25T01:09:38;96003.47;;;8.40;100.00
57644;BME280;43474;46.510;6.686;2023-04-25T01:12:05;96005.19;;;8.34;100.00
57644;BME280;43474;46.510;6.686;2023-04-25T01:14:30;96030.13;;;8.38;100.00
57644;BME280;43474;46.510;6.686;2023-04-25T01:16:56;96008.78;;;8.16;100.00
57644;BME280;43474;46.510;6.686;2023-04-25T01:19:23;96008.88;;;8.10;100.00
57644;BME280;43474;46.510;6.686;2023-04-25T01:21:49;96012.44;;;8.03;100.00
57644;BME280;43474;46.510;6.686;2023-04-25T01:24:15;95978.81;;;7.75;100.00
57644;BME280;43474;46.510;6.686;2023-04-25T01:26:41;96032.09;;;7.96;100.00
57644;BME280;43474;46.510;6.686;2023-04-25T01:29:10;96009.91;;;7.73;100.00
57644;BME280;43474;46.510;6.686;2023-04-25T01:31:36;96027.13;;;7.76;100.00
57644;BME280;43474;46.510;6.686;2023-04-25T01:34:02;96025.94;;;7.60;100.00
57644;BME280;43474;46.510;6.686;2023-04-25T01:36:28;96047.59;;;7.50;100.00
57644;BME280;43474;46.510;6.686;2023-04-25T01:38:53;96059.28;;;7.43;100.00
57644;BME280;43474;46.510;6.686;2023-04-25T01:41:20;96045.59;;;7.22;100.00
57644;BME280;43474;46.510;6.686;2023-04-25T01:43:48;96052.06;;;7.08;100.00
57644;BME280;43474;46.510;6.686;2023-04-25T01:46:14;96056.03;;;6.99;100.00
57644;BME280;43474;46.510;6.686;2023-04-25T01:48:40;96064.97;;;6.98;100.00
57644;BME280;43474;46.510;6.686;2023-04-25T01:51:06;96062.19;;;6.93;100.00
57644;BME280;43474;46.510;6.686;2023-04-25T01:53:31;96046.69;;;6.85;100.00
57644;BME280;43474;46.510;6.686;2023-04-25T01:55:57;96030.03;;;6.72;100.00
57644;BME280;43474;46.510;6.686;2023-04-25T01:58:23;96031.06;;;6.71;100.00
57644;BME280;43474;46.510;6.686;2023-04-25T02:00:48;96049.53;;;6.83;100.00
57644;BME280;43474;46.510;6.686;2023-04-25T02:03:14;96060.06;;;6.83;100.00
57644;BME280;43474;46.510;6.686;2023-04-25T02:05:39;96052.53;;;6.87;100.00
57644;BME280;43474;46.510;6.686;2023-04-25T02:08:06;96043.91;;;6.80;100.00
57644;BME280;43474;46.510;6.686;2023-04-25T02:10:33;96034.25;;;6.73;100.00
57644;BME280;43474;46.510;6.686;2023-04-25T02:12:59;96027.13;;;6.62;100.00
57644;BME280;43474;46.510;6.686;2023-04-25T02:15:25;96035.28;;;6.72;100.00
57644;BME280;43474;46.510;6.686;2023-04-25T02:17:50;96037.13;;;6.72;100.00
57644;BME280;43474;46.510;6.686;2023-04-25T02:20:19;96038.22;;;6.64;100.00
57644;BME280;43474;46.510;6.686;2023-04-25T02:22:45;96044.88;;;6.67;100.00
57644;BME280;43474;46.510;6.686;2023-04-25T02:25:12;96043.72;;;6.63;100.00
57644;BME280;43474;46.510;6.686;2023-04-25T02:27:38;96031.28;;;6.52;100.00
57644;BME280;43474;46.510;6.686;2023-04-25T02:30:05;96062.06;;;6.69;100.00
57644;BME280;43474;46.510;6.686;2023-04-25T02:32:32;96063.47;;;6.72;100.00
57644;BME280;43474;46.510;6.686;2023-04-25T02:34:57;96028.53;;;6.46;100.00
57644;BME280;43474;46.510;6.686;2023-04-25T02:37:29;96044.94;;;6.60;100.00
57644;BME280;43474;46.510;6.686;2023-04-25T02:39:55;96021.56;;;6.52;100.00
57644;BME280;43474;46.510;6.686;2023-04-25T02:42:20;96010.38;;;6.38;100.00
57644;BME280;43474;46.510;6.686;2023-04-25T02:44:46;96033.25;;;6.56;100.00
57644;BME280;43474;46.510;6.686;2023-04-25T02:47:12;96015.66;;;6.38;100.00
57644;BME280;43474;46.510;6.686;2023-04-25T02:49:37;96031.50;;;6.50;100.00
57644;BME280;43474;46.510;6.686;2023-04-25T02:52:03;96004.88;;;6.40;100.00
57644;BME280;43474;46.510;6.686;2023-04-25T02:54:29;96013.25;;;6.37;100.00
57644;BME280;43474;46.510;6.686;2023-04-25T02:56:55;96005.41;;;6.30;100.00
57644;BME280;43474;46.510;6.686;2023-04-25T02:59:21;96000.09;;;6.37;100.00
57644;BME280;43474;46.510;6.686;2023-04-25T03:01:46;96025.94;;;6.40;100.00
57644;BME280;43474;46.510;6.686;2023-04-25T03:04:12;96038.38;;;6.51;100.00
57644;BME280;43474;46.510;6.686;2023-04-25T03:06:37;96036.63;;;6.45;100.00
57644;BME280;43474;46.510;6.686;2023-04-25T03:09:03;96030.69;;;6.31;100.00
57644;BME280;43474;46.510;6.686;2023-04-25T03:11:29;96035.16;;;6.49;100.00
57644;BME280;43474;46.510;6.686;2023-04-25T03:13:55;96036.03;;;6.43;100.00
57644;BME280;43474;46.510;6.686;2023-04-25T03:16:21;96045.59;;;6.56;100.00
57644;BME280;43474;46.510;6.686;2023-04-25T03:18:47;96033.47;;;6.55;100.00
57644;BME280;43474;46.510;6.686;2023-04-25T03:21:13;96024.06;;;6.47;100.00
57644;BME280;43474;46.510;6.686;2023-04-25T03:23:38;96034.22;;;6.62;100.00
57644;BME280;43474;46.510;6.686;2023-04-25T03:26:04;96039.63;;;6.48;100.00
57644;BME280;43474;46.510;6.686;2023-04-25T03:28:29;96018.94;;;6.34;100.00
57644;BME280;43474;46.510;6.686;2023-04-25T03:30:55;96038.44;;;6.44;100.00
57644;BME280;43474;46.510;6.686;2023-04-25T03:33:21;96036.47;;;6.58;100.00
57644;BME280;43474;46.510;6.686;2023-04-25T03:35:47;96029.66;;;6.51;100.00
57644;BME280;43474;46.510;6.686;2023-04-25T03:38:12;96013.72;;;6.45;100.00
57644;BME280;43474;46.510;6.686;2023-04-25T03:40:38;96032.28;;;6.51;100.00
57644;BME280;43474;46.510;6.686;2023-04-25T03:43:04;96024.72;;;6.42;100.00
57644;BME280;43474;46.510;6.686;2023-04-25T03:45:30;96005.53;;;6.35;100.00
57644;BME280;43474;46.510;6.686;2023-04-25T03:47:55;96025.28;;;6.44;100.00
57644;BME280;43474;46.510;6.686;2023-04-25T03:50:21;96016.16;;;6.47;100.00
57644;BME280;43474;46.510;6.686;2023-04-25T03:52:46;96018.19;;;6.45;100.00
57644;BME280;43474;46.510;6.686;2023-04-25T03:55:12;96035.22;;;6.61;100.00
57644;BME280;43474;46.510;6.686;2023-04-25T03:57:38;96037.66;;;6.62;100.00
57644;BME280;43474;46.510;6.686;2023-04-25T04:00:03;96035.69;;;6.58;100.00
57644;BME280;43474;46.510;6.686;2023-04-25T04:02:29;96032.28;;;6.51;100.00
57644;BME280;43474;46.510;6.686;2023-04-25T04:04:55;96033.69;;;6.53;100.00
57644;BME280;43474;46.510;6.686;2023-04-25T04:07:22;96019.38;;;6.49;100.00
57644;BME280;43474;46.510;6.686;2023-04-25T04:09:47;96042.78;;;6.57;100.00
57644;BME280;43474;46.510;6.686;2023-04-25T04:12:13;96009.94;;;6.41;100.00
57644;BME280;43474;46.510;6.686;2023-04-25T04:14:38;96033.38;;;6.61;100.00
57644;BME280;43474;46.510;6.686;2023-04-25T04:17:04;96028.81;;;6.57;100.00
57644;BME280;43474;46.510;6.686;2023-04-25T04:19:29;96020.97;;;6.50;100.00
57644;BME280;43474;46.510;6.686;2023-04-25T04:21:55;96025.88;;;6.46;100.00
57644;BME280;43474;46.510;6.686;2023-04-25T04:24:20;96009.44;;;6.33;100.00
57644;BME280;43474;46.510;6.686;2023-04-25T04:26:46;96003.66;;;6.42;100.00
57644;BME280;43474;46.510;6.686;2023-04-25T04:29:11;96014.91;;;6.50;100.00
57644;BME280;43474;46.510;6.686;2023-04-25T04:31:38;96041.97;;;6.57;100.00
57644;BME280;43474;46.510;6.686;2023-04-25T04:34:03;96012.63;;;6.35;100.00
57644;BME280;43474;46.510;6.686;2023-04-25T04:36:30;96019.78;;;6.46;100.00
57644;BME280;43474;46.510;6.686;2023-04-25T04:38:55;95979.97;;;6.24;100.00
57644;BME280;43474;46.510;6.686;2023-04-25T04:41:22;96038.22;;;6.64;100.00
57644;BME280;43474;46.510;6.686;2023-04-25T04:43:47;96043.41;;;6.71;100.00
57644;BME280;43474;46.510;6.686;2023-04-25T04:46:13;96027.97;;;6.56;100.00
57644;BME280;43474;46.510;6.686;2023-04-25T04:48:39;96024.25;;;6.45;100.00
57644;BME280;43474;46.510;6.686;2023-04-25T04:51:06;96032.09;;;6.52;100.00
57644;BME280;43474;46.510;6.686;2023-04-25T04:53:32;96043.34;;;6.59;100.00
57644;BME280;43474;46.510;6.686;2023-04-25T04:55:58;96031.44;;;6.57;100.00
57644;BME280;43474;46.510;6.686;2023-04-25T04:58:23;96035.59;;;6.64;100.00
57644;BME280;43474;46.510;6.686;2023-04-25T05:00:49;96020.16;;;6.50;100.00
57644;BME280;43474;46.510;6.686;2023-04-25T05:03:15;96021.78;;;6.51;100.00
57644;BME280;43474;46.510;6.686;2023-04-25T05:05:41;96051.25;;;6.59;100.00
57644;BME280;43474;46.510;6.686;2023-04-25T05:08:07;96057.41;;;6.53;100.00
57644;BME280;43474;46.510;6.686;2023-04-25T05:10:32;96030.78;;;6.43;100.00
57644;BME280;43474;46.510;6.686;2023-04-25T05:12:58;96037.94;;;6.54;100.00
57644;BME280;43474;46.510;6.686;2023-04-25T05:15:24;96030.84;;;6.55;100.00
57644;BME280;43474;46.510;6.686;2023-04-25T05:17:50;96020.97;;;6.50;100.00
57644;BME280;43474;46.510;6.686;2023-04-25T05:20:15;96030.03;;;6.54;100.00
57644;BME280;43474;46.510;6.686;2023-04-25T05:22:41;96042.88;;;6.81;100.00
57644;BME280;43474;46.510;6.686;2023-04-25T05:25:08;96024.75;;;6.72;100.00
57644;BME280;43474;46.510;6.686;2023-04-25T05:27:34;96037.97;;;6.84;100.00
57644;BME280;43474;46.510;6.686;2023-04-25T05:30:00;96055.22;;;6.98;100.00
57644;BME280;43474;46.510;6.686;2023-04-25T05:32:26;96044.03;;;7.03;100.00
57644;BME280;43474;46.510;6.686;2023-04-25T05:34:52;96045.31;;;7.12;100.00
57644;BME280;43474;46.510;6.686;2023-04-25T05:37:17;96046.69;;;7.15;100.00
57644;BME280;43474;46.510;6.686;2023-04-25T05:39:43;96062.47;;;7.33;100.00
57644;BME280;43474;46.510;6.686;2023-04-25T05:42:08;96057.31;;;7.38;100.00
57644;BME280;43474;46.510;6.686;2023-04-25T05:44:34;96062.09;;;7.30;100.00
57644;BME280;43474;46.510;6.686;2023-04-25T05:46:59;96067.09;;;7.19;100.00
57644;BME280;43474;46.510;6.686;2023-04-25T05:49:25;96065.06;;;7.21;100.00
57644;BME280;43474;46.510;6.686;2023-04-25T05:51:50;96080.41;;;7.24;100.00
57644;BME280;43474;46.510;6.686;2023-04-25T05:54:16;96077.28;;;7.16;100.00
57644;BME280;43474;46.510;6.686;2023-04-25T05:56:42;96091.06;;;6.99;100.00
57644;BME280;43474;46.510;6.686;2023-04-25T05:59:07;96089.25;;;7.00;100.00
57644;BME280;43474;46.510;6.686;2023-04-25T06:01:33;96075.50;;;6.80;100.00
57644;BME280;43474;46.510;6.686;2023-04-25T06:03:58;96068.91;;;6.89;100.00
57644;BME280;43474;46.510;6.686;2023-04-25T06:06:24;96068.34;;;6.87;100.00
57644;BME280;43474;46.510;6.686;2023-04-25T06:08:51;96085.44;;;6.96;100.00
57644;BME280;43474;46.510;6.686;2023-04-25T06:11:16;96090.38;;;6.92;100.00
57644;BME280;43474;46.510;6.686;2023-04-25T06:13:42;96076.53;;;6.97;100.00
57644;BME280;43474;46.510;6.686;2023-04-25T06:16:07;96086.16;;;7.21;100.00
57644;BME280;43474;46.510;6.686;2023-04-25T06:18:33;96086.06;;;7.28;100.00
57644;BME280;43474;46.510;6.686;2023-04-25T06:20:58;96089.63;;;7.34;100.00
57644;BME280;43474;46.510;6.686;2023-04-25T06:23:24;96078.38;;;7.27;100.00
57644;BME280;43474;46.510;6.686;2023-04-25T06:25:49;96075.47;;;7.16;100.00
57644;BME280;43474;46.510;6.686;2023-04-25T06:28:15;96091.47;;;7.15;100.00
57644;BME280;43474;46.510;6.686;2023-04-25T06:30:40;96102.03;;;7.15;100.00
57644;BME280;43474;46.510;6.686;2023-04-25T06:33:06;96085.41;;;7.14;100.00
57644;BME280;43474;46.510;6.686;2023-04-25T06:35:34;96076.81;;;7.07;100.00
57644;BME280;43474;46.510;6.686;2023-04-25T06:38:00;96084.38;;;7.15;100.00
57644;BME280;43474;46.510;6.686;2023-04-25T06:40:25;96084.22;;;7.29;100.00
57644;BME280;43474;46.510;6.686;2023-04-25T06:42:51;96091.81;;;7.37;100.00
57644;BME280;43474;46.510;6.686;2023-04-25T06:45:17;96090.28;;;7.59;100.00
57644;BME280;43474;46.510;6.686;2023-04-25T06:47:42;96079.41;;;7.79;100.00
57644;BME280;43474;46.510;6.686;2023-04-25T06:50:08;96084.81;;;7.84;100.00
57644;BME280;43474;46.510;6.686;2023-04-25T06:52:34;96092.41;;;7.92;100.00
57644;BME280;43474;46.510;6.686;2023-04-25T06:54:59;96074.97;;;8.03;100.00
57644;BME280;43474;46.510;6.686;2023-04-25T06:57:25;96071.88;;;7.94;100.00
57644;BME280;43474;46.510;6.686;2023-04-25T06:59:51;96076.72;;;8.21;100.00
57644;BME280;43474;46.510;6.686;2023-04-25T07:02:16;96079.78;;;8.29;100.00
57644;BME280;43474;46.510;6.686;2023-04-25T07:04:42;96067.53;;;8.23;100.00
57644;BME280;43474;46.510;6.686;2023-04-25T07:07:07;96074.63;;;8.23;100.00
57644;BME280;43474;46.510;6.686;2023-04-25T07:09:33;96056.50;;;8.15;100.00
57644;BME280;43474;46.510;6.686;2023-04-25T07:12:00;96053.94;;;10.53;100.00
57644;BME280;43474;46.510;6.686;2023-04-25T07:14:27;96054.72;;;11.69;100.00
57644;BME280;43474;46.510;6.686;2023-04-25T07:16:53;96052.75;;;12.65;100.00
57644;BME280;43474;46.510;6.686;2023-04-25T07:19:21;96051.25;;;11.95;100.00
57644;BME280;43474;46.510;6.686;2023-04-25T07:21:46;96055.91;;;12.62;100.00
57644;BME280;43474;46.510;6.686;2023-04-25T07:24:12;96071.47;;;12.01;100.00
57644;BME280;43474;46.510;6.686;2023-04-25T07:26:37;96057.09;;;13.75;100.00
57644;BME280;43474;46.510;6.686;2023-04-25T07:29:04;96043.75;;;14.21;100.00
57644;BME280;43474;46.510;6.686;2023-04-25T07:31:30;96051.13;;;14.85;100.00
57644;BME280;43474;46.510;6.686;2023-04-25T07:33:55;96052.53;;;15.32;99.02
57644;BME280;43474;46.510;6.686;2023-04-25T07:36:21;96057.31;;;15.80;100.00
57644;BME280;43474;46.510;6.686;2023-04-25T07:38:46;96046.72;;;16.33;100.00
57644;BME280;43474;46.510;6.686;2023-04-25T07:41:12;96053.81;;;16.47;90.31
57644;BME280;43474;46.510;6.686;2023-04-25T07:43:37;96070.50;;;16.63;90.42
57644;BME280;43474;46.510;6.686;2023-04-25T07:46:03;96077.09;;;16.47;86.97
57644;BME280;43474;46.510;6.686;2023-04-25T07:48:29;96092.75;;;16.88;98.35
57644;BME280;43474;46.510;6.686;2023-04-25T07:50:55;96082.66;;;16.50;90.75
57644;BME280;43474;46.510;6.686;2023-04-25T07:53:20;96074.88;;;16.25;88.50
57644;BME280;43474;46.510;6.686;2023-04-25T07:55:46;96082.25;;;16.38;94.56
57644;BME280;43474;46.510;6.686;2023-04-25T07:58:11;96060.47;;;16.79;98.24
57644;BME280;43474;46.510;6.686;2023-04-25T08:00:37;96084.25;;;16.22;95.33
57644;BME280;43474;46.510;6.686;2023-04-25T08:03:03;96080.28;;;14.26;100.00
57644;BME280;43474;46.510;6.686;2023-04-25T08:05:29;96082.19;;;13.06;100.00
57644;BME280;43474;46.510;6.686;2023-04-25T08:07:54;96080.94;;;12.24;100.00
57644;BME280;43474;46.510;6.686;2023-04-25T08:10:22;96093.16;;;12.25;100.00
57644;BME280;43474;46.510;6.686;2023-04-25T08:12:50;96098.25;;;11.95;100.00
57644;BME280;43474;46.510;6.686;2023-04-25T08:15:16;96112.72;;;11.33;100.00
57644;BME280;43474;46.510;6.686;2023-04-25T08:17:41;96104.22;;;11.31;100.00
57644;BME280;43474;46.510;6.686;2023-04-25T08:20:07;96119.00;;;11.49;100.00
57644;BME280;43474;46.510;6.686;2023-04-25T08:22:34;96100.72;;;11.52;100.00
57644;BME280;43474;46.510;6.686;2023-04-25T08:25:00;96122.81;;;11.58;100.00
57644;BME280;43474;46.510;6.686;2023-04-25T08:27:25;96131.91;;;10.96;100.00
57644;BME280;43474;46.510;6.686;2023-04-25T08:29:51;96110.50;;;10.81;100.00
57644;BME280;43474;46.510;6.686;2023-04-25T08:32:18;96117.41;;;10.82;100.00
57644;BME280;43474;46.510;6.686;2023-04-25T08:34:44;96095.53;;;10.70;100.00
57644;BME280;43474;46.510;6.686;2023-04-25T08:37:09;96137.47;;;11.17;100.00
57644;BME280;43474;46.510;6.686;2023-04-25T08:39:36;96155.91;;;11.77;100.00
57644;BME280;43474;46.510;6.686;2023-04-25T08:42:05;96155.97;;;12.74;100.00
57644;BME280;43474;46.510;6.686;2023-04-25T08:44:34;96152.00;;;12.39;100.00
57644;BME280;43474;46.510;6.686;2023-04-25T08:47:04;96158.13;;;12.12;100.00
57644;BME280;43474;46.510;6.686;2023-04-25T08:49:33;96165.03;;;12.08;100.00
57644;BME280;43474;46.510;6.686;2023-04-25T08:52:03;96159.94;;;12.07;100.00
57644;BME280;43474;46.510;6.686;2023-04-25T08:54:32;96163.38;;;11.80;100.00
57644;BME280;43474;46.510;6.686;2023-04-25T08:57:00;96156.03;;;11.17;100.00
57644;BME280;43474;46.510;6.686;2023-04-25T08:59:30;96150.84;;;10.66;100.00
57644;BME280;43474;46.510;6.686;2023-04-25T09:01:57;96163.16;;;10.55;100.00
57644;BME280;43474;46.510;6.686;2023-04-25T09:04:22;96178.81;;;10.40;100.00
57644;BME280;43474;46.510;6.686;2023-04-25T09:06:48;96148.28;;;10.21;100.00
57644;BME280;43474;46.510;6.686;2023-04-25T09:09:14;96185.56;;;10.19;100.00
57644;BME280;43474;46.510;6.686;2023-04-25T09:11:39;96188.63;;;10.11;100.00
57644;BME280;43474;46.510;6.686;2023-04-25T09:19:26;96202.06;;;9.64;100.00
57644;BME280;43474;46.510;6.686;2023-04-25T09:21:57;96218.63;;;9.71;100.00
57644;BME280;43474;46.510;6.686;2023-04-25T09:26:56;96225.59;;;9.37;100.00
57644;BME280;43474;46.510;6.686;2023-04-25T09:29:31;96244.75;;;9.16;100.00
57644;BME280;43474;46.510;6.686;2023-04-25T09:32:11;96248.41;;;8.79;100.00
57644;BME280;43474;46.510;6.686;2023-04-25T09:34:44;96267.22;;;8.29;100.00
57644;BME280;43474;46.510;6.686;2023-04-25T09:37:10;96259.53;;;7.86;100.00
57644;BME280;43474;46.510;6.686;2023-04-25T09:39:37;96248.50;;;7.89;100.00
57644;BME280;43474;46.510;6.686;2023-04-25T09:42:04;96263.91;;;7.92;100.00
57644;BME280;43474;46.510;6.686;2023-04-25T09:44:30;96243.09;;;7.84;100.00
57644;BME280;43474;46.510;6.686;2023-04-25T09:46:56;96223.72;;;7.90;100.00
57644;BME280;43474;46.510;6.686;2023-04-25T09:49:23;96223.16;;;8.30;100.00
57644;BME280;43474;46.510;6.686;2023-04-25T09:51:58;96225.78;;;8.95;100.00
57644;BME280;43474;46.510;6.686;2023-04-25T09:54:25;96239.63;;;9.78;100.00
57644;BME280;43474;46.510;6.686;2023-04-25T09:56:51;96214.84;;;10.24;100.00
57644;BME280;43474;46.510;6.686;2023-04-25T09:59:20;96239.66;;;10.23;100.00
57644;BME280;43474;46.510;6.686;2023-04-25T10:01:48;96237.94;;;11.13;100.00
57644;BME280;43474;46.510;6.686;2023-04-25T10:04:20;96255.69;;;11.51;100.00
57644;BME280;43474;46.510;6.686;2023-04-25T10:06:48;96250.84;;;11.87;100.00
57644;BME280;43474;46.510;6.686;2023-04-25T10:09:16;96260.50;;;11.98;100.00
57644;BME280;43474;46.510;6.686;2023-04-25T10:11:44;96247.28;;;12.89;100.00
57644;BME280;43474;46.510;6.686;2023-04-25T10:14:10;96232.38;;;13.88;100.00
57644;BME280;43474;46.510;6.686;2023-04-25T10:16:38;96271.09;;;13.49;100.00
57644;BME280;43474;46.510;6.686;2023-04-25T10:19:04;96264.00;;;13.69;100.00
57644;BME280;43474;46.510;6.686;2023-04-25T10:21:31;96265.13;;;13.79;100.00
57644;BME280;43474;46.510;6.686;2023-04-25T10:23:58;96272.81;;;15.04;100.00
57644;BME280;43474;46.510;6.686;2023-04-25T10:26:24;96270.16;;;13.80;100.00
57644;BME280;43474;46.510;6.686;2023-04-25T10:29:02;96265.97;;;12.67;100.00
57644;BME280;43474;46.510;6.686;2023-04-25T10:31:30;96287.06;;;11.98;100.00
57644;BME280;43474;46.510;6.686;2023-04-25T10:33:56;96286.44;;;11.69;100.00
57644;BME280;43474;46.510;6.686;2023-04-25T10:36:22;96276.31;;;11.66;100.00
57644;BME280;43474;46.510;6.686;2023-04-25T10:38:50;96271.53;;;11.68;100.00
57644;BME280;43474;46.510;6.686;2023-04-25T10:41:20;96284.34;;;11.49;100.00
57644;BME280;43474;46.510;6.686;2023-04-25T10:43:47;96276.44;;;11.76;100.00
57644;BME280;43474;46.510;6.686;2023-04-25T10:46:27;96279.28;;;11.70;100.00
57644;BME280;43474;46.510;6.686;2023-04-25T10:49:00;96273.81;;;12.25;100.00
57644;BME280;43474;46.510;6.686;2023-04-25T10:51:33;96278.31;;;12.79;100.00
57644;BME280;43474;46.510;6.686;2023-04-25T10:54:06;96290.50;;;13.12;100.00
57644;BME280;43474;46.510;6.686;2023-04-25T10:56:36;96285.66;;;13.88;100.00
57644;BME280;43474;46.510;6.686;2023-04-25T10:59:11;96274.97;;;14.87;100.00
57644;BME280;43474;46.510;6.686;2023-04-25T11:01:45;96276.19;;;15.66;91.72
57644;BME280;43474;46.510;6.686;2023-04-25T11:04:30;96291.50;;;14.84;92.88
57644;BME280;43474;46.510;6.686;2023-04-25T11:09:36;96291.69;;;12.89;100.00
57644;BME280;43474;46.510;6.686;2023-04-25T11:12:03;96286.38;;;12.89;100.00
57644;BME280;43474;46.510;6.686;2023-04-25T11:14:29;96268.88;;;13.35;98.26
57644;BME280;43474;46.510;6.686;2023-04-25T11:16:55;96276.72;;;14.30;93.52
57644;BME280;43474;46.510;6.686;2023-04-25T11:19:22;96274.22;;;13.93;93.03
57644;BME280;43474;46.510;6.686;2023-04-25T11:21:48;96278.09;;;13.65;90.93
57644;BME280;43474;46.510;6.686;2023-04-25T11:24:13;96274.16;;;13.25;93.59
57644;BME280;43474;46.510;6.686;2023-04-25T11:26:41;96277.41;;;13.00;98.60
57644;BME280;43474;46.510;6.686;2023-04-25T11:29:07;96286.09;;;12.90;99.91
57644;BME280;43474;46.510;6.686;2023-04-25T11:31:33;96286.41;;;12.94;96.92
57644;BME280;43474;46.510;6.686;2023-04-25T11:33:59;96271.19;;;12.57;97.91
57644;BME280;43474;46.510;6.686;2023-04-25T11:36:25;96265.88;;;12.57;100.00
57644;BME280;43474;46.510;6.686;2023-04-25T11:38:53;96260.22;;;13.13;100.00
57644;BME280;43474;46.510;6.686;2023-04-25T11:41:19;96266.00;;;14.10;99.00
57644;BME280;43474;46.510;6.686;2023-04-25T11:43:45;96278.59;;;14.30;98.95
57644;BME280;43474;46.510;6.686;2023-04-25T11:46:11;96278.03;;;14.17;99.50
57644;BME280;43474;46.510;6.686;2023-04-25T11:48:40;96260.72;;;14.20;96.69
57644;BME280;43474;46.510;6.686;2023-04-25T11:51:06;96263.38;;;14.25;86.63
57644;BME280;43474;46.510;6.686;2023-04-25T11:53:33;96277.00;;;14.29;98.49
57644;BME280;43474;46.510;6.686;2023-04-25T11:56:01;96250.94;;;14.82;82.93
57644;BME280;43474;46.510;6.686;2023-04-25T11:58:27;96269.63;;;15.07;77.66
57644;BME280;43474;46.510;6.686;2023-04-25T12:00:53;96265.63;;;14.74;92.42
57644;BME280;43474;46.510;6.686;2023-04-25T12:03:19;96273.06;;;14.52;82.05
57644;BME280;43474;46.510;6.686;2023-04-25T12:05:45;96247.97;;;15.14;91.11
57644;BME280;43474;46.510;6.686;2023-04-25T12:08:15;96272.00;;;15.14;78.08
57644;BME280;43474;46.510;6.686;2023-04-25T12:10:45;96262.66;;;15.16;71.78
57644;BME280;43474;46.510;6.686;2023-04-25T12:13:19;96261.09;;;14.74;75.93
57644;BME280;43474;46.510;6.686;2023-04-25T12:15:45;96257.56;;;14.43;71.28
57644;BME280;43474;46.510;6.686;2023-04-25T12:18:11;96268.56;;;14.93;79.94
57644;BME280;43474;46.510;6.686;2023-04-25T12:20:36;96264.53;;;14.90;77.35
57644;BME280;43474;46.510;6.686;2023-04-25T12:23:05;96257.56;;;15.20;74.37
57644;BME280;43474;46.510;6.686;2023-04-25T12:25:37;96270.63;;;15.47;72.67
57644;BME280;43474;46.510;6.686;2023-04-25T12:28:18;96244.97;;;15.41;75.61
57644;BME280;43474;46.510;6.686;2023-04-25T12:31:01;96266.38;;;15.25;73.45
57644;BME280;43474;46.510;6.686;2023-04-25T12:33:38;96262.44;;;14.92;65.80
57644;BME280;43474;46.510;6.686;2023-04-25T12:36:05;96263.22;;;14.52;71.94
57644;BME280;43474;46.510;6.686;2023-04-25T12:38:38;96278.44;;;15.08;84.53
57644;BME280;43474;46.510;6.686;2023-04-25T12:41:04;96256.28;;;14.97;84.82
57644;BME280;43474;46.510;6.686;2023-04-25T12:43:30;96274.38;;;15.25;90.77
57644;BME280;43474;46.510;6.686;2023-04-25T12:45:56;96270.31;;;15.59;90.05
57644;BME280;43474;46.510;6.686;2023-04-25T12:48:23;96250.63;;;15.29;75.08
57644;BME280;43474;46.510;6.686;2023-04-25T12:50:49;96268.47;;;15.54;85.57
57644;BME280;43474;46.510;6.686;2023-04-25T12:53:20;96259.44;;;15.30;78.12
57644;BME280;43474;46.510;6.686;2023-04-25T12:55:46;96278.63;;;15.47;84.37
57644;BME280;43474;46.510;6.686;2023-04-25T12:58:16;96270.66;;;15.32;84.44
57644;BME280;43474;46.510;6.686;2023-04-25T13:00:42;96269.09;;;14.85;77.65
57644;BME280;43474;46.510;6.686;2023-04-25T13:03:09;96259.59;;;15.79;85.12
57644;BME280;43474;46.510;6.686;2023-04-25T13:05:35;96249.47;;;16.25;71.74